Time;durP1;ratioP1;P1;durP2;ratioP2;P2;SDS_P1;SDS_P2;PMS_P1;PMS_P2;Temp;Humidity;BMP_temperature;BMP_pressure;BME280_temperature;BME280_humidity;BME280_pressure;Samples;Min_cycle;Max_cycle;Signal;HPM_P1;HPM_P2
2022/11/20 00:00:50;;;;;;;326.70;138.40;;;-5.70;99.90;;;;;;5027427;28;20065;-60
2022/11/20 00:03:17;;;;;;;302.73;131.03;;;-5.70;99.90;;;;;;5026747;28;20072;-59
2022/11/20 00:05:42;;;;;;;297.95;132.30;;;-5.70;99.90;;;;;;5027814;28;20029;-63
2022/11/20 00:08:08;;;;;;;305.45;129.70;;;-5.80;99.90;;;;;;5027222;28;20071;-62
2022/11/20 00:10:37;;;;;;;301.67;125.50;;;-5.70;99.90;;;;;;5007490;28;20021;-63
2022/11/20 00:13:02;;;;;;;302.52;123.35;;;-5.80;99.90;;;;;;5027464;28;20469;-56
2022/11/20 00:15:28;;;;;;;296.17;124.53;;;-5.90;99.90;;;;;;5027475;28;20064;-55
2022/11/20 00:17:54;;;;;;;283.70;125.35;;;-5.90;99.90;;;;;;5028493;28;20511;-58
2022/11/20 00:20:19;;;;;;;284.17;120.80;;;-6.00;99.90;;;;;;5028788;28;20029;-57
2022/11/20 00:22:45;;;;;;;267.80;119.17;;;-5.90;99.90;;;;;;5028880;28;20032;-63
2022/11/20 00:25:11;;;;;;;270.73;119.93;;;-5.80;99.90;;;;;;5028704;28;20026;-62
2022/11/20 00:27:37;;;;;;;290.13;125.43;;;-5.90;99.90;;;;;;5026501;28;20025;-62
2022/11/20 00:30:03;;;;;;;293.90;126.37;;;-5.80;99.90;;;;;;5028860;28;20021;-63
2022/11/20 00:32:30;;;;;;;325.92;138.57;;;-5.90;99.90;;;;;;5028428;28;20108;-56
2022/11/20 00:34:55;;;;;;;320.42;139.38;;;-5.90;99.90;;;;;;5028594;28;20021;-61
2022/11/20 00:37:21;;;;;;;321.00;134.40;;;-5.90;99.90;;;;;;5028541;28;20099;-59
2022/11/20 00:39:46;;;;;;;321.47;136.53;;;-5.90;99.90;;;;;;5029922;28;20041;-58
2022/11/20 00:42:12;;;;;;;325.43;133.87;;;-6.00;99.90;;;;;;5011604;28;20052;-58
2022/11/20 00:44:38;;;;;;;399.60;147.77;;;-6.00;99.90;;;;;;5029445;28;20031;-60
2022/11/20 00:47:04;;;;;;;406.90;149.23;;;-6.00;99.90;;;;;;5029661;28;20378;-58
2022/11/20 00:49:29;;;;;;;393.38;145.30;;;-6.10;99.90;;;;;;5029776;28;20101;-62
2022/11/20 00:51:55;;;;;;;366.93;140.87;;;-6.00;99.90;;;;;;5028691;28;20399;-66
2022/11/20 00:54:21;;;;;;;368.00;137.43;;;-6.00;99.90;;;;;;5028764;28;20029;-69
2022/11/20 00:56:46;;;;;;;351.87;135.83;;;-5.90;99.90;;;;;;5028913;28;20133;-63
2022/11/20 00:59:12;;;;;;;341.70;131.57;;;-5.90;99.90;;;;;;5028891;28;20017;-65
2022/11/20 01:01:38;;;;;;;332.88;131.07;;;-5.80;99.90;;;;;;5028963;28;20037;-62
2022/11/20 01:04:04;;;;;;;327.97;130.43;;;-5.80;99.90;;;;;;5028674;28;20029;-64
2022/11/20 01:06:35;;;;;;;330.33;127.07;;;-5.80;99.90;;;;;;5028704;28;20030;-64
2022/11/20 01:09:04;;;;;;;318.50;125.78;;;-5.90;99.90;;;;;;5028703;28;20531;-57
2022/11/20 01:11:33;;;;;;;319.05;126.43;;;-5.90;99.90;;;;;;5028932;28;20550;-57
2022/11/20 01:14:00;;;;;;;310.95;126.78;;;-6.00;99.90;;;;;;5028562;28;20050;-63
2022/11/20 01:16:28;;;;;;;307.08;124.20;;;-5.90;99.90;;;;;;5028622;28;20110;-63
2022/11/20 01:18:56;;;;;;;312.15;121.07;;;-5.90;99.90;;;;;;5033685;28;20021;-57
2022/11/20 01:21:25;;;;;;;280.20;121.32;;;-5.80;99.90;;;;;;5030113;28;20025;-63
2022/11/20 01:23:51;;;;;;;285.42;118.70;;;-5.80;99.90;;;;;;5049337;28;20112;-60
2022/11/20 01:26:23;;;;;;;275.73;116.22;;;-5.90;99.90;;;;;;5048957;28;20032;-65
2022/11/20 01:28:50;;;;;;;264.63;115.50;;;-5.90;99.90;;;;;;5038584;28;20026;-63
2022/11/20 01:31:18;;;;;;;258.13;110.05;;;-5.80;99.90;;;;;;5037072;28;20060;-60
2022/11/20 01:33:45;;;;;;;255.05;113.05;;;-5.90;99.90;;;;;;5049025;28;20047;-58
2022/11/20 01:36:12;;;;;;;252.60;108.25;;;-5.80;99.90;;;;;;5032023;28;20493;-57
2022/11/20 01:38:38;;;;;;;241.18;111.18;;;-5.80;99.90;;;;;;5029054;28;20052;-64
2022/11/20 01:41:04;;;;;;;244.77;107.57;;;-5.90;99.90;;;;;;5028552;28;20488;-65
2022/11/20 01:43:31;;;;;;;248.50;109.32;;;-6.00;99.90;;;;;;5029495;28;20049;-64
2022/11/20 01:46:05;;;;;;;235.05;102.25;;;-6.00;99.90;;;;;;5014251;28;20060;-60
2022/11/20 01:48:40;;;;;;;231.82;103.60;;;-6.20;99.90;;;;;;5032029;28;20079;-63
2022/11/20 01:51:18;;;;;;;238.90;107.88;;;-6.10;99.90;;;;;;5031993;28;20025;-58
2022/11/20 01:53:44;;;;;;;238.00;110.35;;;-6.00;99.90;;;;;;5032325;28;20033;-64
2022/11/20 01:56:13;;;;;;;228.70;107.50;;;-5.90;99.90;;;;;;4998570;28;20536;-61
2022/11/20 01:58:44;;;;;;;226.68;100.95;;;-6.00;99.90;;;;;;5031899;28;20045;-62
2022/11/20 02:01:11;;;;;;;228.68;103.95;;;-6.00;99.90;;;;;;5031922;28;20519;-63
2022/11/20 02:03:37;;;;;;;234.80;103.78;;;-5.90;99.90;;;;;;5030598;28;20254;-63
2022/11/20 02:06:26;;;;;;;220.93;105.43;;;-6.00;99.90;;;;;;5031583;28;20029;-63
2022/11/20 02:08:52;;;;;;;220.85;101.57;;;-6.00;99.90;;;;;;5019127;28;20029;-57
2022/11/20 02:11:18;;;;;;;230.38;104.10;;;-5.90;99.90;;;;;;5032083;28;20025;-58
2022/11/20 02:13:44;;;;;;;229.23;105.40;;;-6.10;99.90;;;;;;5031676;28;20036;-58
2022/11/20 02:16:19;;;;;;;222.82;99.53;;;-6.00;99.90;;;;;;5031445;28;20468;-62
2022/11/20 02:18:46;;;;;;;205.65;96.35;;;-5.90;99.90;;;;;;5013647;28;20026;-60
2022/11/20 02:21:34;;;;;;;220.23;96.28;;;-5.80;99.90;;;;;;5031721;28;20446;-65
2022/11/20 02:24:04;;;;;;;217.27;95.45;;;-5.80;99.90;;;;;;5031550;28;20143;-61
2022/11/20 02:26:33;;;;;;;204.02;98.13;;;-5.90;99.90;;;;;;5032164;28;20022;-59
2022/11/20 02:29:01;;;;;;;203.43;97.40;;;-5.80;99.90;;;;;;5032179;28;20104;-66
2022/11/20 02:31:27;;;;;;;207.15;93.22;;;-5.80;99.90;;;;;;5031400;28;20037;-63
2022/11/20 02:33:59;;;;;;;214.30;99.10;;;-5.80;99.90;;;;;;5030861;28;20032;-63
2022/11/20 02:36:27;;;;;;;213.43;97.75;;;-5.80;99.90;;;;;;5031039;28;20038;-64
2022/11/20 02:38:53;;;;;;;215.80;99.22;;;-5.80;99.90;;;;;;5030934;28;20030;-58
2022/11/20 02:41:18;;;;;;;207.40;95.03;;;-5.80;99.90;;;;;;5031282;28;20461;-59
2022/11/20 02:43:44;;;;;;;203.13;98.33;;;-5.70;99.90;;;;;;5031285;28;20061;-59
2022/11/20 02:46:10;;;;;;;216.48;96.20;;;-5.70;99.90;;;;;;5030741;28;20025;-62
2022/11/20 02:48:35;;;;;;;207.37;97.17;;;-5.70;99.90;;;;;;5030889;28;20108;-63
2022/11/20 02:51:01;;;;;;;222.53;97.17;;;-5.90;99.90;;;;;;5030893;28;20468;-62
2022/11/20 02:53:27;;;;;;;214.40;97.57;;;-5.80;99.90;;;;;;5031199;28;20025;-65
2022/11/20 02:55:53;;;;;;;215.20;95.45;;;-5.80;99.90;;;;;;5031158;28;20021;-63
2022/11/20 02:58:19;;;;;;;229.87;104.03;;;-5.80;99.90;;;;;;5031060;28;20033;-63
2022/11/20 03:00:44;;;;;;;216.30;98.70;;;-5.80;99.90;;;;;;5030502;28;20055;-62
2022/11/20 03:03:10;;;;;;;205.93;99.33;;;-5.70;99.90;;;;;;5030738;28;20126;-61
2022/11/20 03:05:35;;;;;;;209.47;98.63;;;-5.80;99.90;;;;;;5031310;28;20029;-64
2022/11/20 03:08:01;;;;;;;212.13;99.07;;;-5.70;99.90;;;;;;5013142;28;20026;-58
2022/11/20 03:10:27;;;;;;;212.90;97.90;;;-5.80;99.90;;;;;;5031218;28;20041;-58
2022/11/20 03:12:54;;;;;;;207.37;96.83;;;-5.70;99.90;;;;;;5031007;28;20025;-58
2022/11/20 03:15:20;;;;;;;233.38;103.43;;;-5.70;99.90;;;;;;5030935;28;20031;-58
2022/11/20 03:17:46;;;;;;;209.20;99.93;;;-5.70;99.90;;;;;;5030561;28;20033;-58
2022/11/20 03:20:12;;;;;;;222.17;102.00;;;-5.70;99.90;;;;;;5030316;28;20473;-60
2022/11/20 03:22:37;;;;;;;225.45;103.35;;;-5.80;99.90;;;;;;5030276;28;20038;-59
2022/11/20 03:25:04;;;;;;;213.13;99.20;;;-5.90;99.90;;;;;;5030081;28;20013;-61
2022/11/20 03:27:33;;;;;;;212.35;99.53;;;-5.90;99.90;;;;;;5031124;28;20384;-58
2022/11/20 03:29:59;;;;;;;206.60;97.63;;;-5.80;99.90;;;;;;5031111;28;20026;-59
2022/11/20 03:32:24;;;;;;;216.17;98.83;;;-5.80;99.90;;;;;;5030872;28;20108;-61
2022/11/20 03:34:50;;;;;;;213.27;99.20;;;-5.80;99.90;;;;;;5030275;28;20059;-65
2022/11/20 03:37:16;;;;;;;216.03;103.43;;;-5.80;99.90;;;;;;5030558;28;20084;-59
2022/11/20 03:39:41;;;;;;;214.63;99.53;;;-5.70;99.90;;;;;;5030064;28;20060;-61
2022/11/20 03:42:44;;;;;;;232.03;102.13;;;-5.70;99.90;;;;;;5012190;28;20053;-62
2022/11/20 03:44:54;;;;;;;217.77;99.35;;;-5.70;99.90;;;;;;5030731;28;20136;-60
2022/11/20 03:47:20;;;;;;;212.03;97.73;;;-5.80;99.90;;;;;;5030714;28;20116;-60
2022/11/20 03:49:46;;;;;;;212.23;98.63;;;-5.80;99.90;;;;;;5030882;28;20354;-60
2022/11/20 03:52:11;;;;;;;215.02;102.78;;;-5.80;99.90;;;;;;5030683;28;20393;-60
2022/11/20 03:54:37;;;;;;;207.75;98.45;;;-5.70;99.90;;;;;;5030485;28;20718;-64
2022/11/20 03:57:02;;;;;;;211.95;100.13;;;-5.70;99.90;;;;;;5030450;28;20132;-56
2022/11/20 03:59:28;;;;;;;209.47;96.10;;;-5.70;99.90;;;;;;5012664;28;20029;-57
2022/11/20 04:01:54;;;;;;;194.33;96.87;;;-5.70;99.90;;;;;;5030515;28;20026;-61
2022/11/20 04:04:19;;;;;;;216.75;101.57;;;-5.70;99.90;;;;;;5012074;28;20465;-61
2022/11/20 04:06:45;;;;;;;223.07;101.03;;;-5.80;99.90;;;;;;5028107;28;20041;-62
2022/11/20 04:09:11;;;;;;;164.20;77.43;;;-5.80;99.90;;;;;;5029731;28;20110;-60
2022/11/20 04:11:39;;;;;;;208.00;96.55;;;-5.80;99.90;;;;;;5029476;28;20681;-59
2022/11/20 04:14:06;;;;;;;208.60;94.75;;;-5.80;99.90;;;;;;5029981;28;20585;-56
2022/11/20 04:16:34;;;;;;;204.85;97.03;;;-5.80;99.90;;;;;;5030150;28;20055;-59
2022/11/20 04:19:02;;;;;;;213.02;99.32;;;-5.80;99.90;;;;;;5029811;28;20094;-61
2022/11/20 04:21:29;;;;;;;222.63;105.68;;;-5.80;99.90;;;;;;5029832;28;20033;-59
2022/11/20 04:23:55;;;;;;;224.75;105.57;;;-5.90;99.90;;;;;;5029881;28;20465;-57
2022/11/20 04:26:26;;;;;;;233.95;107.90;;;-5.80;99.90;;;;;;5030156;28;20119;-59
2022/11/20 04:28:51;;;;;;;225.32;105.75;;;-5.90;99.90;;;;;;5030534;28;20065;-56
2022/11/20 04:31:20;;;;;;;232.53;108.00;;;-5.80;99.90;;;;;;5029979;28;20072;-57
2022/11/20 04:33:46;;;;;;;225.13;105.75;;;-5.90;99.90;;;;;;5029337;28;20022;-59
2022/11/20 04:36:18;;;;;;;226.03;106.67;;;-5.80;99.90;;;;;;5029054;28;20095;-58
2022/11/20 04:38:44;;;;;;;229.55;108.28;;;-5.90;99.90;;;;;;5029220;28;20026;-58
2022/11/20 04:41:16;;;;;;;178.95;85.25;;;-5.90;99.90;;;;;;4995024;28;20032;-61
2022/11/20 04:43:48;;;;;;;235.65;106.03;;;-5.90;99.90;;;;;;5029451;28;20046;-57
2022/11/20 04:46:14;;;;;;;229.70;102.63;;;-5.90;99.90;;;;;;5029771;28;20060;-58
2022/11/20 04:48:40;;;;;;;239.60;107.72;;;-6.00;99.90;;;;;;5029807;28;20472;-60
2022/11/20 04:51:06;;;;;;;241.53;110.10;;;-6.00;99.90;;;;;;5029994;28;20044;-60
2022/11/20 04:53:32;;;;;;;282.25;122.50;;;-5.90;99.90;;;;;;5030011;28;20041;-61
2022/11/20 04:56:02;;;;;;;283.15;122.18;;;-5.90;99.90;;;;;;5011854;28;20037;-60
2022/11/20 04:58:29;;;;;;;300.13;127.28;;;-5.90;99.90;;;;;;5029440;28;20033;-60
2022/11/20 05:01:02;;;;;;;287.48;127.22;;;-5.90;99.90;;;;;;5029671;28;20018;-57
2022/11/20 05:03:27;;;;;;;306.02;131.13;;;-5.90;99.90;;;;;;5028924;28;20052;-58
2022/11/20 05:05:53;;;;;;;306.00;133.53;;;-6.00;99.90;;;;;;5029083;28;20465;-57
2022/11/20 05:08:18;;;;;;;299.03;129.67;;;-5.90;99.90;;;;;;5011294;28;20034;-58
2022/11/20 05:10:44;;;;;;;256.87;115.63;;;-6.00;99.90;;;;;;5029068;28;20045;-62
2022/11/20 05:13:10;;;;;;;249.33;112.67;;;-6.10;99.90;;;;;;5029633;28;20098;-59
2022/11/20 05:15:35;;;;;;;276.13;120.45;;;-6.00;99.90;;;;;;5029540;28;20060;-60
2022/11/20 05:18:01;;;;;;;279.03;120.43;;;-5.90;99.90;;;;;;5031019;28;20635;-62
2022/11/20 05:20:27;;;;;;;240.83;112.40;;;-5.90;99.90;;;;;;5033199;28;20038;-58
2022/11/20 05:22:56;;;;;;;242.13;108.13;;;-5.90;99.90;;;;;;5014881;28;20163;-58
2022/11/20 05:25:21;;;;;;;218.95;103.03;;;-6.00;99.90;;;;;;5031956;28;20048;-63
2022/11/20 05:27:47;;;;;;;220.33;104.17;;;-5.90;99.90;;;;;;5032613;28;20107;-59
2022/11/20 05:30:13;;;;;;;238.05;108.65;;;-5.90;99.90;;;;;;5032456;28;20420;-59
2022/11/20 05:32:39;;;;;;;214.25;102.30;;;-6.00;99.90;;;;;;5033520;28;20053;-59
2022/11/20 05:35:05;;;;;;;224.73;102.30;;;-6.00;99.90;;;;;;5015301;28;20041;-59
2022/11/20 05:37:30;;;;;;;231.17;105.30;;;-6.00;99.90;;;;;;5031650;28;20029;-60
2022/11/20 05:39:56;;;;;;;224.90;103.40;;;-6.10;99.90;;;;;;5032681;28;20346;-59
2022/11/20 05:42:30;;;;;;;210.03;98.10;;;-6.10;99.90;;;;;;5032743;28;20064;-61
2022/11/20 05:44:57;;;;;;;237.85;109.43;;;-6.10;99.90;;;;;;5032984;28;20037;-58
2022/11/20 05:47:23;;;;;;;227.65;103.50;;;-6.10;99.90;;;;;;5032102;28;20022;-60
2022/11/20 05:49:48;;;;;;;234.13;106.53;;;-6.20;99.90;;;;;;5032437;28;20040;-60
2022/11/20 05:52:14;;;;;;;229.10;104.57;;;-6.20;99.90;;;;;;5031853;28;20029;-63
2022/11/20 05:54:40;;;;;;;236.60;106.60;;;-6.20;99.90;;;;;;5032000;28;20029;-58
2022/11/20 05:57:05;;;;;;;216.10;103.57;;;-6.20;99.90;;;;;;5048824;28;20164;-60
2022/11/20 05:59:31;;;;;;;209.60;100.30;;;-6.30;99.90;;;;;;5052585;28;20715;-60
2022/11/20 06:01:56;;;;;;;244.47;105.57;;;-6.20;99.90;;;;;;5052301;28;20040;-61
2022/11/20 06:04:22;;;;;;;231.23;106.07;;;-6.20;99.90;;;;;;5051465;28;20029;-60
2022/11/20 06:06:48;;;;;;;237.47;111.17;;;-6.10;99.90;;;;;;5051508;28;20036;-60
2022/11/20 06:09:13;;;;;;;241.30;109.77;;;-6.20;99.90;;;;;;5051288;28;20036;-63
2022/11/20 06:11:39;;;;;;;231.70;104.70;;;-6.20;99.90;;;;;;5052054;28;20112;-65
2022/11/20 06:14:05;;;;;;;229.60;104.50;;;-6.20;99.90;;;;;;5052568;28;20158;-57
2022/11/20 06:16:30;;;;;;;242.00;107.73;;;-6.20;99.90;;;;;;5052249;28;20076;-58
2022/11/20 06:18:56;;;;;;;241.00;109.27;;;-6.20;99.90;;;;;;5052106;28;20820;-59
2022/11/20 06:21:24;;;;;;;249.07;113.13;;;-6.20;99.90;;;;;;5051438;28;20036;-60
2022/11/20 06:23:51;;;;;;;254.65;116.68;;;-6.10;99.90;;;;;;5051158;28;20534;-58
2022/11/20 06:26:22;;;;;;;269.25;121.13;;;-6.20;99.90;;;;;;5032935;28;20084;-60
2022/11/20 06:28:49;;;;;;;268.63;124.72;;;-6.30;99.90;;;;;;5029664;28;20380;-60
2022/11/20 06:31:18;;;;;;;272.20;124.30;;;-6.30;99.90;;;;;;5031449;28;20022;-61
2022/11/20 06:33:44;;;;;;;265.00;122.32;;;-6.30;99.90;;;;;;5031066;28;20448;-62
2022/11/20 06:36:12;;;;;;;278.93;122.83;;;-6.40;99.90;;;;;;5031226;28;20068;-64
2022/11/20 06:38:39;;;;;;;277.23;123.95;;;-6.30;99.90;;;;;;5031149;28;20033;-59
2022/11/20 06:41:05;;;;;;;274.52;125.25;;;-6.40;99.90;;;;;;5031131;28;20083;-62
2022/11/20 06:43:31;;;;;;;270.67;126.47;;;-6.20;99.90;;;;;;5031541;28;20612;-64
2022/11/20 06:45:58;;;;;;;262.07;120.30;;;-6.30;99.90;;;;;;5031821;28;20032;-61
2022/11/20 06:48:25;;;;;;;255.40;115.10;;;-6.20;99.90;;;;;;5031700;28;20030;-62
2022/11/20 06:50:51;;;;;;;243.90;114.15;;;-6.20;99.90;;;;;;5031718;28;20119;-59
2022/11/20 06:53:17;;;;;;;235.10;112.73;;;-6.20;99.90;;;;;;5030853;28;20647;-59
2022/11/20 06:55:44;;;;;;;233.25;106.60;;;-6.10;99.90;;;;;;5030490;28;20044;-59
2022/11/20 06:58:10;;;;;;;243.55;111.57;;;-6.10;99.90;;;;;;5030941;28;20242;-61
2022/11/20 07:00:36;;;;;;;232.63;110.60;;;-6.00;99.90;;;;;;5030702;28;20098;-63
2022/11/20 07:03:05;;;;;;;241.33;113.80;;;-5.90;99.90;;;;;;5030878;28;20487;-60
2022/11/20 07:05:31;;;;;;;257.48;115.82;;;-5.80;99.90;;;;;;5030498;28;20029;-61
2022/11/20 07:07:57;;;;;;;230.00;111.67;;;-5.60;99.90;;;;;;5030534;28;20040;-61
2022/11/20 07:10:24;;;;;;;233.20;106.25;;;-5.50;99.90;;;;;;5030589;28;20056;-64
2022/11/20 07:12:50;;;;;;;222.02;105.20;;;-5.30;99.90;;;;;;5029943;28;20372;-60
2022/11/20 07:15:17;;;;;;;223.35;107.00;;;-5.30;99.90;;;;;;5028441;28;20021;-62
2022/11/20 07:17:43;;;;;;;223.35;107.47;;;-5.20;99.90;;;;;;5026181;28;20112;-60
2022/11/20 07:20:09;;;;;;;240.60;112.47;;;-5.00;99.90;;;;;;5028918;28;20101;-62
2022/11/20 07:22:34;;;;;;;226.18;110.85;;;-5.00;99.90;;;;;;5029080;28;20040;-58
2022/11/20 07:25:01;;;;;;;255.90;112.87;;;-5.00;99.90;;;;;;5011550;28;20022;-60
2022/11/20 07:27:27;;;;;;;248.20;113.68;;;-4.90;99.90;;;;;;5029361;28;20392;-60
2022/11/20 07:29:53;;;;;;;240.70;116.13;;;-4.80;99.90;;;;;;5005069;28;20025;-59
2022/11/20 07:32:19;;;;;;;251.52;118.78;;;-4.70;99.90;;;;;;5028879;28;20295;-61
2022/11/20 07:34:44;;;;;;;268.50;120.30;;;-4.60;99.90;;;;;;5028544;28;20017;-65
2022/11/20 07:37:10;;;;;;;276.13;126.00;;;-4.50;99.90;;;;;;5028028;28;20120;-62
2022/11/20 07:39:35;;;;;;;308.93;132.30;;;-4.50;99.90;;;;;;5028607;28;20428;-59
2022/11/20 07:42:01;;;;;;;311.20;133.13;;;-4.30;99.90;;;;;;5028100;28;20640;-59
2022/11/20 07:44:27;;;;;;;304.40;130.07;;;-4.20;99.90;;;;;;5029683;28;20452;-61
2022/11/20 07:46:52;;;;;;;302.27;132.23;;;-4.10;99.90;;;;;;5030314;28;20030;-64
2022/11/20 07:49:18;;;;;;;290.13;128.52;;;-4.00;99.90;;;;;;5029466;28;20084;-63
2022/11/20 07:51:43;;;;;;;283.88;128.60;;;-3.90;99.90;;;;;;5012060;28;20030;-61
2022/11/20 07:54:09;;;;;;;263.48;117.32;;;-3.70;99.90;;;;;;5029417;28;20052;-63
2022/11/20 07:56:35;;;;;;;267.92;124.20;;;-3.60;99.90;;;;;;5029942;28;20040;-65
2022/11/20 07:59:00;;;;;;;258.25;123.22;;;-3.40;99.90;;;;;;5030482;28;20120;-59
2022/11/20 08:01:26;;;;;;;256.73;116.82;;;-3.40;99.90;;;;;;5030211;28;20024;-60
2022/11/20 08:03:51;;;;;;;259.75;116.63;;;-3.30;99.90;;;;;;5029534;28;20061;-60
2022/11/20 08:06:19;;;;;;;227.90;113.70;;;-3.20;99.90;;;;;;5029632;28;20065;-64
2022/11/20 08:08:45;;;;;;;234.63;112.97;;;-3.10;99.90;;;;;;5028220;28;20014;-60
2022/11/20 08:14:13;;;;;;;234.73;113.78;;;-2.80;99.90;;;;;;5031014;28;20108;-65
2022/11/20 08:16:43;;;;;;;222.70;110.43;;;-2.60;99.90;;;;;;5036398;28;20045;-63
2022/11/20 08:19:10;;;;;;;215.88;107.95;;;-2.40;99.90;;;;;;5039422;28;20017;-66
2022/11/20 08:21:35;;;;;;;199.57;102.90;;;-2.30;99.90;;;;;;5045780;28;20380;-61
2022/11/20 08:24:01;;;;;;;202.98;105.05;;;-2.20;99.90;;;;;;5040125;28;20032;-59
2022/11/20 08:26:27;;;;;;;204.80;102.82;;;-1.90;99.90;;;;;;5038231;28;20052;-62
2022/11/20 08:28:57;;;;;;;202.63;102.68;;;-2.00;99.90;;;;;;5038272;28;20071;-64
2022/11/20 08:31:24;;;;;;;204.10;102.82;;;-1.80;99.90;;;;;;5038899;28;20033;-65
2022/11/20 08:33:50;;;;;;;197.15;103.10;;;-1.60;99.90;;;;;;5037856;28;20044;-62
2022/11/20 08:36:17;;;;;;;212.05;102.78;;;-1.40;99.90;;;;;;5037785;28;20648;-61
2022/11/20 08:38:46;;;;;;;204.20;105.27;;;-1.40;99.90;;;;;;5037842;28;20025;-63
2022/11/20 08:41:25;;;;;;;201.70;103.75;;;-1.40;99.90;;;;;;5014133;28;20033;-66
2022/11/20 08:44:03;;;;;;;206.40;104.25;;;-1.40;99.90;;;;;;5033136;28;20442;-63
2022/11/20 08:46:33;;;;;;;;;;;-1.20;99.90;;;;;;5029019;28;20029;-64
2022/11/20 08:48:59;;;;;;;196.50;97.15;;;-1.00;99.90;;;;;;5030141;28;19909;-60
2022/11/20 08:51:24;;;;;;;205.88;104.13;;;-1.20;99.90;;;;;;5029795;28;20036;-59
2022/11/20 08:53:50;;;;;;;203.05;102.97;;;-1.00;99.90;;;;;;5031200;28;20041;-60
2022/11/20 08:56:17;;;;;;;192.07;103.82;;;-0.90;99.90;;;;;;5033820;28;20041;-63
2022/11/20 08:58:43;;;;;;;205.85;100.40;;;-1.00;99.90;;;;;;5034137;28;20703;-63
2022/11/20 09:01:08;;;;;;;198.40;102.70;;;-0.90;99.90;;;;;;5033840;28;20061;-61
2022/11/20 09:03:34;;;;;;;195.57;102.15;;;-0.90;99.90;;;;;;5032230;28;20477;-65
2022/11/20 09:06:01;;;;;;;188.60;96.57;;;-0.90;99.90;;;;;;5032399;28;20112;-63
2022/11/20 09:08:28;;;;;;;185.43;96.60;;;-0.70;99.90;;;;;;5031764;28;20034;-61
2022/11/20 09:10:55;;;;;;;185.80;93.40;;;-0.60;99.90;;;;;;5032425;28;20465;-63
2022/11/20 09:13:22;;;;;;;149.30;77.22;;;-0.40;99.90;;;;;;5029918;28;20022;-61
2022/11/20 09:15:56;;;;;;;155.05;73.15;;;-0.20;99.90;;;;;;5031972;28;20431;-63
2022/11/20 09:18:22;;;;;;;140.15;67.60;;;-0.20;99.90;;;;;;5029481;28;20563;-60
2022/11/20 09:20:48;;;;;;;134.18;67.60;;;-0.30;99.90;;;;;;5009755;28;20038;-66
2022/11/20 09:23:14;;;;;;;137.13;68.35;;;-0.30;99.90;;;;;;5032777;28;20024;-63
2022/11/20 09:25:40;;;;;;;136.73;65.50;;;-0.30;99.90;;;;;;5028647;28;20423;-62
2022/11/20 09:28:05;;;;;;;137.85;66.55;;;-0.30;99.90;;;;;;5031757;28;20485;-64
2022/11/20 09:30:31;;;;;;;135.07;62.55;;;-0.20;99.90;;;;;;5033696;28;20113;-59
2022/11/20 09:32:57;;;;;;;121.47;59.22;;;-0.20;99.90;;;;;;5040540;28;20051;-60
2022/11/20 09:35:22;;;;;;;116.38;57.10;;;-0.10;99.90;;;;;;5040601;28;20497;-61
2022/11/20 09:37:48;;;;;;;119.35;58.10;;;0.00;99.90;;;;;;5038796;28;20049;-65
2022/11/20 09:40:21;;;;;;;100.25;51.42;;;0.40;99.90;;;;;;5039576;28;20029;-63
2022/11/20 09:43:02;;;;;;;102.35;50.67;;;0.80;99.90;;;;;;5029417;28;20092;-64
2022/11/20 09:45:40;;;;;;;122.57;53.17;;;0.80;99.90;;;;;;5027631;28;20035;-61
2022/11/20 09:48:22;;;;;;;110.82;53.15;;;1.20;99.90;;;;;;5035798;28;20029;-62
2022/11/20 09:50:48;;;;;;;98.00;49.70;;;0.90;99.90;;;;;;5035772;28;20036;-63
2022/11/20 09:53:32;;;;;;;108.38;50.47;;;1.00;99.90;;;;;;5017810;28;20050;-61
2022/11/20 09:56:01;;;;;;;102.65;51.08;;;0.70;99.90;;;;;;5035232;28;20427;-60
2022/11/20 09:58:39;;;;;;;96.20;50.80;;;0.90;99.90;;;;;;5033611;28;20083;-62
2022/11/20 10:01:32;;;;;;;102.80;52.33;;;0.80;99.90;;;;;;5034884;28;20033;-61
2022/11/20 10:04:20;;;;;;;113.13;52.85;;;0.60;99.90;;;;;;5032705;28;20059;-60
2022/11/20 10:06:54;;;;;;;110.43;55.33;;;0.60;99.90;;;;;;5036393;28;20468;-60
2022/11/20 10:09:27;;;;;;;99.35;50.88;;;0.40;99.90;;;;;;5041211;28;20047;-62
2022/11/20 10:12:05;;;;;;;102.95;54.25;;;0.40;99.90;;;;;;5041272;28;20021;-58
2022/11/20 10:14:33;;;;;;;95.80;52.60;;;0.40;99.90;;;;;;5036959;28;20112;-54
2022/11/20 10:17:33;;;;;;;94.38;49.35;;;0.40;99.90;;;;;;5039414;28;20038;-58
2022/11/20 10:20:20;;;;;;;101.10;51.80;;;0.40;99.90;;;;;;5036111;28;20029;-63
2022/11/20 10:23:07;;;;;;;91.43;47.55;;;0.50;99.90;;;;;;5035698;28;20078;-61
2022/11/20 10:25:43;;;;;;;93.75;46.22;;;0.70;99.90;;;;;;5037169;28;20167;-60
2022/11/20 10:28:27;;;;;;;90.93;45.53;;;1.10;99.90;;;;;;5036084;28;20060;-61
2022/11/20 10:31:11;;;;;;;88.03;44.45;;;1.40;99.90;;;;;;5012124;28;20500;-64
2022/11/20 10:33:43;;;;;;;82.20;40.67;;;1.80;99.90;;;;;;5012430;28;20474;-61
2022/11/20 10:36:18;;;;;;;71.75;36.70;;;1.90;99.90;;;;;;5018922;28;20033;-60
2022/11/20 10:39:14;;;;;;;76.45;39.90;;;1.80;99.90;;;;;;5034724;28;20021;-57
2022/11/20 10:41:41;;;;;;;79.53;37.95;;;2.50;99.90;;;;;;5031104;28;20017;-66
2022/11/20 10:45:00;;;;;;;73.43;36.70;;;2.60;99.90;;;;;;5028601;28;20113;-58
2022/11/20 10:47:03;;;;;;;79.72;39.75;;;3.10;99.90;;;;;;5027029;28;20131;-59
2022/11/20 10:49:30;;;;;;;76.60;37.40;;;3.40;99.90;;;;;;5029240;28;20032;-63
2022/11/20 10:52:04;;;;;;;77.63;39.40;;;3.20;99.90;;;;;;5029790;28;20021;-61
2022/11/20 10:54:43;;;;;;;74.22;38.22;;;3.30;99.90;;;;;;5012156;28;20025;-64
2022/11/20 10:57:21;;;;;;;72.05;38.33;;;3.90;99.90;;;;;;5029632;28;20038;-59
2022/11/20 11:00:11;;;;;;;83.47;39.45;;;4.50;99.90;;;;;;5030711;28;20032;-63
2022/11/20 11:02:49;;;;;;;79.00;38.63;;;3.40;99.90;;;;;;5031537;28;20028;-62
2022/11/20 11:05:22;;;;;;;84.38;41.47;;;2.80;99.90;;;;;;5031459;28;20033;-64
2022/11/20 11:07:55;;;;;;;88.18;43.67;;;3.00;99.90;;;;;;5031220;28;20025;-60
2022/11/20 11:10:26;;;;;;;78.00;41.35;;;3.20;99.90;;;;;;5031121;28;20610;-60
2022/11/20 11:12:52;;;;;;;86.60;43.75;;;3.50;99.90;;;;;;5031426;28;20123;-66
2022/11/20 11:15:26;;;;;;;88.13;43.13;;;3.60;99.90;;;;;;5030843;28;20465;-64
2022/11/20 11:17:52;;;;;;;89.85;45.97;;;3.10;99.90;;;;;;5031037;28;20041;-66
2022/11/20 11:20:24;;;;;;;92.88;48.78;;;3.10;99.90;;;;;;5030947;28;20027;-63
2022/11/20 11:22:56;;;;;;;101.20;50.05;;;3.00;99.90;;;;;;5031250;28;20029;-64
2022/11/20 11:25:36;;;;;;;99.53;51.03;;;2.70;99.90;;;;;;5019263;28;20030;-67
2022/11/20 11:28:17;;;;;;;108.18;52.80;;;2.50;99.90;;;;;;4992935;28;20030;-62
2022/11/20 11:30:44;;;;;;;103.97;53.50;;;2.50;99.90;;;;;;4992256;28;20026;-67
2022/11/20 11:33:19;;;;;;;114.28;55.28;;;2.00;99.90;;;;;;5016974;28;20084;-66
2022/11/20 11:35:50;;;;;;;114.50;57.33;;;1.80;99.90;;;;;;5028828;28;20554;-62
2022/11/20 11:38:42;;;;;;;111.88;55.78;;;2.00;99.90;;;;;;5029222;28;20041;-60
2022/11/20 11:41:16;;;;;;;113.43;56.63;;;2.00;99.90;;;;;;5024839;28;20416;-63
2022/11/20 11:46:41;;;;;;;110.65;52.35;;;2.30;99.90;;;;;;5029006;28;20071;-62
2022/11/20 11:49:09;;;;;;;103.90;51.70;;;2.50;99.90;;;;;;5028266;28;20028;-64
2022/11/20 11:51:46;;;;;;;104.80;50.17;;;2.60;99.90;;;;;;5028041;28;20033;-62
2022/11/20 11:54:40;;;;;;;88.57;47.10;;;2.60;99.90;;;;;;5026727;28;20025;-61
2022/11/20 11:57:22;;;;;;;106.40;51.38;;;2.70;99.90;;;;;;5008657;28;20300;-64
2022/11/20 12:00:16;;;;;;;103.95;50.67;;;2.40;99.90;;;;;;5027043;28;20036;-61
2022/11/20 12:03:02;;;;;;;108.90;53.70;;;2.30;99.90;;;;;;5028435;28;20061;-65
2022/11/20 12:05:48;;;;;;;111.88;54.92;;;2.00;99.90;;;;;;5011261;28;20061;-60
2022/11/20 12:08:29;;;;;;;113.63;56.10;;;2.30;99.90;;;;;;5029441;28;20115;-61
2022/11/20 12:11:10;;;;;;;115.50;57.53;;;2.20;99.90;;;;;;5029704;28;20033;-65
2022/11/20 12:13:45;;;;;;;114.53;58.08;;;2.20;99.90;;;;;;5029438;28;20029;-60
2022/11/20 12:16:14;;;;;;;106.35;55.08;;;2.40;99.90;;;;;;5029144;28;20026;-62
2022/11/20 12:18:41;;;;;;;115.65;57.97;;;2.70;99.90;;;;;;5029265;28;20140;-61
2022/11/20 12:21:20;;;;;;;116.43;58.47;;;2.80;99.90;;;;;;5017456;28;20026;-61
2022/11/20 12:23:54;;;;;;;110.07;54.97;;;3.50;99.90;;;;;;5009521;28;20025;-62
2022/11/20 12:26:33;;;;;;;111.53;56.20;;;4.80;99.90;;;;;;4991801;28;20034;-60
2022/11/20 12:29:34;;;;;;;104.28;54.17;;;5.50;99.90;;;;;;5009324;28;20026;-61
2022/11/20 12:32:35;;;;;;;106.97;57.65;;;6.20;99.90;;;;;;4910500;29;20035;-64